createdAt,value
2022-09-15T00:03:36.785Z,14.60
2022-09-15T00:07:18.826Z,14.60
2022-09-15T00:11:11.749Z,14.60
2022-09-15T00:14:54.071Z,14.60
2022-09-15T00:18:37.571Z,14.60
2022-09-15T00:22:20.802Z,14.60
2022-09-15T00:26:06.098Z,14.70
2022-09-15T00:29:48.077Z,14.70
2022-09-15T00:33:29.986Z,14.80
2022-09-15T00:37:11.941Z,14.80
2022-09-15T00:40:56.278Z,14.90
2022-09-15T00:44:49.198Z,14.90
2022-09-15T00:48:31.320Z,15.00
2022-09-15T00:52:24.648Z,15.00
2022-09-15T00:56:08.660Z,15.00
2022-09-15T00:59:52.407Z,15.10
2022-09-15T01:03:35.660Z,15.10
2022-09-15T01:07:35.839Z,15.10
2022-09-15T01:11:17.923Z,15.20
2022-09-15T01:15:03.146Z,15.20
2022-09-15T01:19:22.195Z,15.20
2022-09-15T01:23:42.267Z,15.20
2022-09-15T01:27:45.200Z,15.20
2022-09-15T01:32:07.788Z,15.20
2022-09-15T01:35:56.657Z,15.20
2022-09-15T01:39:43.253Z,15.20
2022-09-15T01:43:27.348Z,15.20
2022-09-15T01:47:13.455Z,15.20
2022-09-15T01:51:00.576Z,15.10
2022-09-15T01:54:49.028Z,15.10
2022-09-15T01:58:32.148Z,15.00
2022-09-15T02:02:44.195Z,15.00
2022-09-15T02:06:37.323Z,14.90
2022-09-15T02:10:45.194Z,15.00
2022-09-15T02:15:08.136Z,14.90
2022-09-15T02:19:08.961Z,14.80
2022-09-15T02:22:57.380Z,14.80
2022-09-15T02:26:43.406Z,14.70
2022-09-15T02:30:25.721Z,14.70
2022-09-15T02:34:32.609Z,14.60
2022-09-15T02:38:15.261Z,14.60
2022-09-15T02:41:57.331Z,14.60
2022-09-15T02:45:39.809Z,14.60
2022-09-15T02:49:21.892Z,14.50
2022-09-15T02:53:04.877Z,14.50
2022-09-15T02:56:47.722Z,14.50
2022-09-15T03:00:31.242Z,14.40
2022-09-15T03:04:13.356Z,14.40
2022-09-15T03:07:56.497Z,14.40
2022-09-15T03:11:44.648Z,14.40
2022-09-15T03:15:27.037Z,14.40
2022-09-15T03:19:09.143Z,14.30
2022-09-15T03:22:51.357Z,14.30
2022-09-15T03:26:33.364Z,14.40
2022-09-15T03:30:15.419Z,14.30
2022-09-15T03:33:58.482Z,14.30
2022-09-15T03:37:40.559Z,14.30
2022-09-15T03:41:22.563Z,14.20
2022-09-15T03:45:04.821Z,14.20
2022-09-15T03:48:47.701Z,14.20
2022-09-15T03:52:32.481Z,14.20
2022-09-15T03:56:22.842Z,14.20
2022-09-15T04:00:08.354Z,14.10
2022-09-15T04:03:51.633Z,14.00
2022-09-15T04:07:33.717Z,13.90
2022-09-15T04:11:18.267Z,13.80
2022-09-15T04:15:00.527Z,13.80
2022-09-15T04:18:43.008Z,13.70
2022-09-15T04:22:25.051Z,13.70
2022-09-15T04:26:22.923Z,13.70
2022-09-15T04:30:06.687Z,13.70
2022-09-15T04:33:51.772Z,13.70
2022-09-15T04:37:35.342Z,13.70
2022-09-15T04:41:18.618Z,13.80
2022-09-15T04:45:00.599Z,13.90
2022-09-15T04:48:43.164Z,13.90
2022-09-15T04:52:25.163Z,14.00
2022-09-15T04:56:10.077Z,14.10
2022-09-15T04:59:52.018Z,14.10
2022-09-15T05:03:37.629Z,14.20
2022-09-15T05:07:19.621Z,14.20
2022-09-15T05:11:10.848Z,14.20
2022-09-15T05:14:52.795Z,14.20
2022-09-15T05:18:35.188Z,14.10
2022-09-15T05:22:17.088Z,14.10
2022-09-15T05:26:01.406Z,14.20
2022-09-15T05:29:43.356Z,14.20
2022-09-15T05:33:25.320Z,14.20
2022-09-15T05:37:07.349Z,14.20
2022-09-15T05:40:49.740Z,14.20
2022-09-15T05:44:31.732Z,14.20
2022-09-15T05:48:13.809Z,14.30
2022-09-15T05:51:56.293Z,14.30
2022-09-15T05:55:38.469Z,14.40
2022-09-15T05:59:20.431Z,14.40
2022-09-15T06:03:02.605Z,14.50
2022-09-15T06:06:44.540Z,14.50
2022-09-15T06:10:26.558Z,14.60
2022-09-15T06:14:08.601Z,14.60
2022-09-15T06:17:51.215Z,14.70
2022-09-15T06:21:33.473Z,14.70
2022-09-15T06:25:15.736Z,14.70
2022-09-15T06:29:01.990Z,14.80
2022-09-15T06:32:47.892Z,14.90
2022-09-15T06:36:38.629Z,14.90
2022-09-15T06:40:20.687Z,15.00
2022-09-15T06:44:02.964Z,15.00
2022-09-15T06:47:44.937Z,15.10
2022-09-15T06:51:28.937Z,15.20
2022-09-15T06:55:14.264Z,15.20
2022-09-15T06:58:56.581Z,15.30
2022-09-15T07:02:38.722Z,15.40
2022-09-15T07:06:21.987Z,15.50
2022-09-15T07:10:05.765Z,15.60
2022-09-15T07:13:49.273Z,15.70
2022-09-15T07:17:31.248Z,15.70
2022-09-15T07:21:20.524Z,15.80
2022-09-15T07:25:02.553Z,15.80
2022-09-15T07:28:49.981Z,15.90
2022-09-15T07:32:31.936Z,15.90
2022-09-15T07:36:14.408Z,16.00
2022-09-15T07:39:56.479Z,16.10
2022-09-15T07:43:39.478Z,16.30
2022-09-15T07:47:21.501Z,16.50
2022-09-15T07:51:03.498Z,16.70
2022-09-15T07:54:45.453Z,16.80
2022-09-15T07:58:27.458Z,16.90
2022-09-15T08:02:19.226Z,17.10
2022-09-15T08:06:03.243Z,17.20
2022-09-15T08:09:45.506Z,17.40
2022-09-15T08:13:29.413Z,17.60
2022-09-15T08:17:11.857Z,17.90
2022-09-15T08:20:54.245Z,18.20
2022-09-15T08:24:37.585Z,18.50
2022-09-15T08:28:19.575Z,18.70
2022-09-15T08:32:01.698Z,18.70
2022-09-15T08:35:44.098Z,18.70
2022-09-15T08:39:26.147Z,18.80
2022-09-15T08:43:19.050Z,18.90
2022-09-15T08:47:26.823Z,18.90
2022-09-15T08:51:18.830Z,19.00
2022-09-15T08:55:11.144Z,19.20
2022-09-15T08:58:53.080Z,19.30
2022-09-15T09:03:03.306Z,19.80
2022-09-15T09:06:54.391Z,20.20
2022-09-15T09:10:58.394Z,20.60
2022-09-15T09:15:09.546Z,21.70
2022-09-15T09:18:59.787Z,23.00
2022-09-15T09:22:44.573Z,24.50
2022-09-15T09:26:30.502Z,26.40
2022-09-15T09:30:19.984Z,26.70
2022-09-15T09:34:20.751Z,26.10
2022-09-15T09:38:02.766Z,25.00
2022-09-15T09:41:45.613Z,24.00
2022-09-15T09:45:27.740Z,23.40
2022-09-15T09:49:23.115Z,22.90
2022-09-15T09:53:24.501Z,22.40
2022-09-15T09:57:31.711Z,22.00
2022-09-15T10:01:18.968Z,21.90
2022-09-15T10:05:06.168Z,22.60
2022-09-15T10:08:58.118Z,23.60
2022-09-15T10:12:41.492Z,23.70
2022-09-15T10:16:23.535Z,23.60
2022-09-15T10:20:19.490Z,23.30
2022-09-15T10:24:27.442Z,23.10
2022-09-15T10:28:09.560Z,22.80
2022-09-15T10:31:51.524Z,23.40
2022-09-15T10:35:33.708Z,24.00
2022-09-15T10:39:40.088Z,23.80
2022-09-15T10:43:46.453Z,23.20
2022-09-15T10:47:34.525Z,22.70
2022-09-15T10:51:41.258Z,22.60
2022-09-15T10:55:53.514Z,23.00
2022-09-15T10:59:44.411Z,23.60
2022-09-15T11:03:48.187Z,23.90
2022-09-15T11:08:07.914Z,24.50
2022-09-15T11:12:04.782Z,25.20
2022-09-15T11:15:53.209Z,25.30
2022-09-15T11:20:01.827Z,24.70
2022-09-15T11:24:20.876Z,24.10
2022-09-15T11:28:38.771Z,23.70
2022-09-15T11:32:47.212Z,23.50
2022-09-15T11:36:58.809Z,23.40
2022-09-15T11:40:48.078Z,23.20
2022-09-15T11:44:33.256Z,23.10
2022-09-15T11:48:45.073Z,22.90
2022-09-15T11:52:58.179Z,22.90
2022-09-15T11:56:47.702Z,22.90
2022-09-15T12:00:30.283Z,22.70
2022-09-15T12:04:28.465Z,22.50
2022-09-15T12:08:13.332Z,22.50
2022-09-15T12:12:03.342Z,22.70
2022-09-15T12:15:46.626Z,22.70
2022-09-15T12:20:00.388Z,22.70
2022-09-15T12:23:51.960Z,22.70
2022-09-15T12:27:33.989Z,23.80
2022-09-15T12:31:27.686Z,24.80
2022-09-15T12:35:15.903Z,24.60
2022-09-15T12:38:59.094Z,24.20
2022-09-15T12:42:46.404Z,25.10
2022-09-15T12:46:29.103Z,25.70
2022-09-15T12:50:17.188Z,25.50
2022-09-15T12:54:04.752Z,25.20
2022-09-15T12:57:52.586Z,25.60
2022-09-15T13:01:48.785Z,26.40
2022-09-15T13:06:12.738Z,26.50
2022-09-15T13:10:12.759Z,26.20
2022-09-15T13:14:15.825Z,25.60
2022-09-15T13:17:58.763Z,24.90
2022-09-15T13:21:46.010Z,24.60
2022-09-15T13:25:30.439Z,24.40
2022-09-15T13:29:16.244Z,24.30
2022-09-15T13:35:02.320Z,24.30
2022-09-15T13:38:15.095Z,24.30
2022-09-15T13:42:19.482Z,24.40
2022-09-15T13:46:19.462Z,24.60
2022-09-15T13:50:01.565Z,24.70
2022-09-15T13:53:59.806Z,24.90
2022-09-15T14:01:52.754Z,24.70
2022-09-15T14:05:36.107Z,24.60
2022-09-15T14:09:21.013Z,24.50
2022-09-15T14:13:03.493Z,24.30
2022-09-15T14:16:50.400Z,24.10
2022-09-15T14:20:33.619Z,23.70
2022-09-15T14:24:21.480Z,23.50
2022-09-15T14:28:05.794Z,23.30
2022-09-15T14:31:48.981Z,23.20
2022-09-15T14:35:38.237Z,22.90
2022-09-15T14:39:22.263Z,22.60
2022-09-15T14:43:25.272Z,22.50
2022-09-15T14:47:21.662Z,22.40
2022-09-15T14:51:15.935Z,22.40
2022-09-15T14:55:03.114Z,22.30
2022-09-15T14:59:12.093Z,22.40
2022-09-15T15:03:06.233Z,22.20
2022-09-15T15:06:58.169Z,22.10
2022-09-15T15:10:40.965Z,21.90
2022-09-15T15:18:37.795Z,21.80
2022-09-15T15:22:23.936Z,21.70
2022-09-15T15:26:36.090Z,21.50
2022-09-15T15:30:30.717Z,21.30
2022-09-15T15:34:25.150Z,21.10
2022-09-15T15:38:17.240Z,21.00
2022-09-15T15:42:05.785Z,20.80
2022-09-15T15:45:51.410Z,20.70
2022-09-15T15:50:02.262Z,20.70
2022-09-15T15:53:42.121Z,20.90
2022-09-15T15:57:28.385Z,21.00
2022-09-15T16:01:12.132Z,21.00
2022-09-15T16:04:55.311Z,20.90
2022-09-15T16:08:39.983Z,20.80
2022-09-15T16:12:22.092Z,20.70
2022-09-15T16:16:14.108Z,20.70
2022-09-15T16:19:56.484Z,20.50
2022-09-15T16:23:38.588Z,20.50
2022-09-15T16:27:20.551Z,20.30
2022-09-15T16:31:02.634Z,20.20
2022-09-15T16:34:44.889Z,20.10
2022-09-15T16:38:28.355Z,20.00
2022-09-15T16:42:11.007Z,19.80
2022-09-15T16:45:53.382Z,19.70
2022-09-15T16:49:37.606Z,19.70
2022-09-15T16:53:21.697Z,19.70
2022-09-15T16:57:03.792Z,19.70
2022-09-15T17:00:51.663Z,19.70
2022-09-15T17:04:33.731Z,19.70
2022-09-15T17:08:17.245Z,19.60
2022-09-15T17:11:59.251Z,19.40
2022-09-15T17:15:42.359Z,19.30
2022-09-15T17:19:24.395Z,19.20
2022-09-15T17:23:21.234Z,19.20
2022-09-15T17:27:03.732Z,19.00
2022-09-15T17:30:45.717Z,19.00
2022-09-15T17:34:27.760Z,18.80
2022-09-15T17:38:09.833Z,18.80
2022-09-15T17:41:52.097Z,18.70
2022-09-15T17:45:37.357Z,18.60
2022-09-15T17:49:19.381Z,18.50
2022-09-15T17:53:01.380Z,18.50
2022-09-15T17:56:43.330Z,18.30
2022-09-15T18:00:28.523Z,18.20
2022-09-15T18:04:11.482Z,18.10
2022-09-15T18:07:58.655Z,18.00
2022-09-15T18:11:40.913Z,17.80
2022-09-15T18:15:29.568Z,17.70
2022-09-15T18:19:11.794Z,17.50
2022-09-15T18:22:54.851Z,17.30
2022-09-15T18:26:37.244Z,17.20
2022-09-15T18:30:21.384Z,17.10
2022-09-15T18:34:03.806Z,17.00
2022-09-15T18:37:47.968Z,17.00
2022-09-15T18:41:29.981Z,16.90
2022-09-15T18:45:15.038Z,16.80
2022-09-15T18:48:57.399Z,16.80
2022-09-15T18:52:41.074Z,16.70
2022-09-15T18:56:23.037Z,16.70
2022-09-15T19:00:09.395Z,16.70
2022-09-15T19:03:51.485Z,16.70
2022-09-15T19:07:33.758Z,16.60
2022-09-15T19:11:16.191Z,16.60
2022-09-15T19:14:58.137Z,16.50
2022-09-15T19:18:40.157Z,16.40
2022-09-15T19:22:22.445Z,16.30
2022-09-15T19:26:06.463Z,16.20
2022-09-15T19:29:48.591Z,16.20
2022-09-15T19:33:30.756Z,16.10
2022-09-15T19:37:18.509Z,16.10
2022-09-15T19:41:06.839Z,16.10
2022-09-15T19:44:49.637Z,16.10
2022-09-15T19:48:33.938Z,16.10
2022-09-15T19:52:33.676Z,16.10
2022-09-15T19:56:22.449Z,16.00
2022-09-15T20:00:06.464Z,16.10
2022-09-15T20:07:48.206Z,16.00
2022-09-15T20:11:31.650Z,15.90
2022-09-15T20:15:13.631Z,15.70
2022-09-15T20:18:56.455Z,15.60
2022-09-15T20:22:38.473Z,15.40
2022-09-15T20:26:20.523Z,15.20
2022-09-15T20:30:02.518Z,15.10
2022-09-15T20:33:45.969Z,14.90
2022-09-15T20:37:28.028Z,14.70
2022-09-15T20:41:12.216Z,14.60
2022-09-15T20:44:54.221Z,14.40
2022-09-15T20:48:52.147Z,14.30
2022-09-15T20:52:38.251Z,14.20
2022-09-15T20:56:24.980Z,14.00
2022-09-15T21:00:09.360Z,13.90
2022-09-15T21:03:51.939Z,13.70
2022-09-15T21:07:34.472Z,13.70
2022-09-15T21:11:18.218Z,13.70
2022-09-15T21:15:00.908Z,13.70
2022-09-15T21:18:44.839Z,13.70
2022-09-15T21:22:26.808Z,13.80
2022-09-15T21:26:11.440Z,13.80
2022-09-15T21:29:53.592Z,13.80
2022-09-15T21:33:36.928Z,13.80
2022-09-15T21:37:19.116Z,13.70
2022-09-15T21:41:01.393Z,13.70
2022-09-15T21:44:43.429Z,13.70
2022-09-15T21:48:27.419Z,13.70
2022-09-15T21:52:09.454Z,13.50
2022-09-15T21:55:52.365Z,13.40
2022-09-15T21:59:34.832Z,13.30
2022-09-15T22:03:17.864Z,13.20
2022-09-15T22:06:59.865Z,13.10
2022-09-15T22:10:42.995Z,13.00
2022-09-15T22:14:25.007Z,12.90
2022-09-15T22:18:07.593Z,12.80
2022-09-15T22:21:49.788Z,12.70
2022-09-15T22:25:33.703Z,12.60
2022-09-15T22:29:15.691Z,12.50
2022-09-15T22:32:57.643Z,12.50
2022-09-15T22:36:39.860Z,12.40
2022-09-15T22:40:21.818Z,12.30
2022-09-15T22:44:04.883Z,12.30
2022-09-15T22:47:46.850Z,12.20
2022-09-15T22:51:28.854Z,12.20
2022-09-15T22:55:12.505Z,12.20
2022-09-15T22:58:56.569Z,12.20
2022-09-15T23:02:38.629Z,12.10
2022-09-15T23:06:21.732Z,12.10
2022-09-15T23:10:03.952Z,12.10
2022-09-15T23:13:45.925Z,12.00
2022-09-15T23:17:28.011Z,12.00
2022-09-15T23:21:13.433Z,11.90
2022-09-15T23:24:55.379Z,11.90
2022-09-15T23:28:39.246Z,11.90
2022-09-15T23:32:21.270Z,11.80
2022-09-15T23:36:05.312Z,11.80
2022-09-15T23:39:47.508Z,11.80
2022-09-15T23:43:29.525Z,11.70
2022-09-15T23:47:11.637Z,11.70
2022-09-15T23:50:53.575Z,11.70
2022-09-15T23:54:35.703Z,11.70
2022-09-15T23:58:17.719Z,11.60
